createdAt,value
2023-02-28T00:02:05.958Z,16.45
2023-02-28T00:04:36.305Z,16.50
2023-02-28T00:07:05.265Z,17.77
2023-02-28T00:09:37.422Z,16.95
2023-02-28T00:12:12.295Z,17.58
2023-02-28T00:15:14.099Z,18.90
2023-02-28T00:20:40.470Z,18.10
2023-02-28T00:23:14.856Z,20.08
2023-02-28T00:25:45.972Z,17.65
2023-02-28T00:28:20.329Z,18.42
2023-02-28T00:30:50.644Z,19.05
2023-02-28T00:33:24.483Z,17.80
2023-02-28T00:35:53.663Z,17.92
2023-02-28T00:38:23.334Z,18.15
2023-02-28T00:40:52.676Z,19.00
2023-02-28T00:43:24.119Z,17.67
2023-02-28T00:45:53.498Z,18.45
2023-02-28T00:48:22.693Z,19.40
2023-02-28T00:50:55.515Z,18.60
2023-02-28T00:53:25.920Z,18.77
2023-02-28T00:55:59.573Z,18.17
2023-02-28T00:58:29.294Z,19.08
2023-02-28T01:00:59.344Z,18.83
2023-02-28T01:03:34.784Z,18.48
2023-02-28T01:08:46.319Z,18.15
2023-02-28T01:11:21.770Z,19.02
2023-02-28T01:13:53.276Z,19.45
2023-02-28T01:16:24.805Z,17.65
2023-02-28T01:19:02.767Z,18.40
2023-02-28T01:21:32.030Z,19.63
2023-02-28T01:24:10.097Z,19.25
2023-02-28T01:26:51.275Z,19.98
2023-02-28T01:29:21.158Z,19.13
2023-02-28T01:31:52.252Z,20.13
2023-02-28T01:34:26.937Z,19.65
2023-02-28T01:37:00.830Z,19.08
2023-02-28T01:39:35.430Z,21.20
2023-02-28T01:42:28.208Z,22.85
2023-02-28T01:46:28.791Z,30.88
2023-02-28T01:53:09.806Z,19.52
2023-02-28T01:55:42.408Z,20.00
2023-02-28T01:58:12.695Z,20.00
2023-02-28T02:00:44.496Z,20.35
2023-02-28T02:03:24.668Z,21.13
2023-02-28T02:06:02.408Z,19.48
2023-02-28T02:08:35.564Z,20.92
2023-02-28T02:11:04.500Z,18.73
2023-02-28T02:13:49.622Z,18.00
2023-02-28T02:16:58.413Z,17.35
2023-02-28T02:19:52.844Z,16.92
2023-02-28T02:22:52.472Z,17.58
2023-02-28T02:26:06.264Z,19.77
2023-02-28T02:29:10.263Z,18.95
2023-02-28T02:32:07.485Z,20.60
2023-02-28T02:35:17.688Z,19.23
2023-02-28T02:37:56.041Z,18.80
2023-02-28T02:40:34.467Z,18.98
2023-02-28T02:43:31.633Z,19.73
2023-02-28T02:46:16.534Z,17.63
2023-02-28T02:48:49.979Z,18.85
2023-02-28T02:51:23.741Z,19.05
2023-02-28T02:54:07.153Z,19.65
2023-02-28T02:56:39.860Z,18.95
2023-02-28T02:59:12.880Z,18.33
2023-02-28T03:01:43.429Z,19.67
2023-02-28T03:04:26.510Z,19.83
2023-02-28T03:06:57.487Z,18.67
2023-02-28T03:09:27.666Z,19.25
2023-02-28T03:11:59.306Z,19.08
2023-02-28T03:17:49.947Z,19.13
2023-02-28T03:20:46.502Z,18.33
2023-02-28T03:23:23.269Z,19.25
2023-02-28T03:26:19.462Z,18.90
2023-02-28T03:28:52.858Z,19.80
2023-02-28T03:32:02.532Z,19.92
2023-02-28T03:34:46.821Z,18.15
2023-02-28T03:37:31.935Z,18.20
2023-02-28T03:40:18.689Z,18.38
2023-02-28T03:42:55.629Z,18.20
2023-02-28T03:45:31.506Z,19.70
2023-02-28T03:48:34.124Z,18.40
2023-02-28T03:51:45.391Z,18.35
2023-02-28T03:54:53.906Z,17.58
2023-02-28T03:57:35.338Z,19.10
2023-02-28T04:00:29.881Z,18.75
2023-02-28T04:06:00.596Z,18.98
2023-02-28T04:08:31.916Z,18.33
2023-02-28T04:11:15.986Z,18.25
2023-02-28T04:13:48.242Z,13.63
2023-02-28T04:16:33.436Z,18.00
2023-02-28T04:19:06.446Z,17.08
2023-02-28T04:24:31.017Z,17.95
2023-02-28T04:27:09.919Z,16.63
2023-02-28T04:29:42.187Z,16.92
2023-02-28T04:32:11.631Z,18.13
2023-02-28T04:34:39.642Z,18.70
2023-02-28T04:37:13.706Z,18.63
2023-02-28T04:39:47.673Z,19.67
2023-02-28T04:42:20.305Z,18.80
2023-02-28T04:44:49.908Z,20.13
2023-02-28T04:47:22.638Z,19.23
2023-02-28T04:49:51.314Z,19.33
2023-02-28T04:52:26.821Z,19.77
2023-02-28T04:55:03.982Z,19.17
2023-02-28T04:57:41.248Z,18.85
2023-02-28T05:00:19.166Z,17.52
2023-02-28T05:02:50.864Z,18.30
2023-02-28T05:05:22.211Z,16.58
2023-02-28T05:07:55.078Z,19.60
2023-02-28T05:10:35.521Z,18.70
2023-02-28T05:13:07.515Z,19.67
2023-02-28T05:15:40.192Z,19.27
2023-02-28T05:18:18.224Z,18.38
2023-02-28T05:20:47.657Z,19.05
2023-02-28T05:23:25.567Z,19.13
2023-02-28T05:25:57.936Z,21.48
2023-02-28T05:28:29.094Z,20.52
2023-02-28T05:30:56.454Z,20.85
2023-02-28T05:33:28.371Z,21.48
2023-02-28T05:35:57.812Z,20.25
2023-02-28T05:38:30.876Z,21.80
2023-02-28T05:41:00.017Z,21.60
2023-02-28T05:43:29.474Z,22.42
2023-02-28T05:45:59.454Z,21.13
2023-02-28T05:48:29.934Z,23.00
2023-02-28T05:51:00.532Z,21.52
2023-02-28T05:53:28.196Z,22.00
2023-02-28T05:55:57.315Z,21.10
2023-02-28T05:58:30.585Z,21.95
2023-02-28T06:01:26.633Z,22.48
2023-02-28T06:04:30.733Z,20.70
2023-02-28T06:07:02.884Z,19.95
2023-02-28T06:09:33.644Z,19.90
2023-02-28T06:12:18.593Z,19.45
2023-02-28T06:15:02.127Z,20.67
2023-02-28T06:17:37.784Z,20.00
2023-02-28T06:20:10.298Z,19.95
2023-02-28T06:22:41.788Z,19.25
2023-02-28T06:25:16.005Z,18.95
2023-02-28T06:27:46.414Z,18.48
2023-02-28T06:30:28.832Z,13.80
2023-02-28T06:32:59.061Z,17.73
2023-02-28T06:35:36.736Z,17.85
2023-02-28T06:38:10.159Z,17.55
2023-02-28T06:40:39.097Z,17.08
2023-02-28T06:43:12.025Z,18.10
2023-02-28T06:45:54.406Z,18.10
2023-02-28T06:48:29.023Z,17.58
2023-02-28T06:51:12.687Z,17.45
2023-02-28T06:53:49.953Z,18.90
2023-02-28T06:56:19.724Z,17.10
2023-02-28T06:58:50.359Z,17.40
2023-02-28T07:01:30.159Z,19.83
2023-02-28T07:04:05.530Z,20.08
2023-02-28T07:06:38.001Z,17.80
2023-02-28T07:09:08.680Z,15.77
2023-02-28T07:11:38.827Z,15.98
2023-02-28T07:14:11.109Z,17.13
2023-02-28T07:16:42.977Z,18.63
2023-02-28T07:19:18.002Z,17.77
2023-02-28T07:21:54.998Z,19.60
2023-02-28T07:24:27.394Z,18.98
2023-02-28T07:27:01.178Z,17.67
2023-02-28T07:29:30.823Z,19.77
2023-02-28T07:32:01.367Z,19.35
2023-02-28T07:34:32.876Z,20.70
2023-02-28T07:37:08.566Z,18.02
2023-02-28T07:39:37.829Z,18.00
2023-02-28T07:42:16.214Z,17.90
2023-02-28T07:44:46.351Z,17.48
2023-02-28T07:47:17.343Z,18.83
2023-02-28T07:49:47.456Z,21.05
2023-02-28T07:52:25.345Z,48.55
2023-02-28T07:54:58.945Z,36.67
2023-02-28T07:57:36.588Z,35.47
2023-02-28T08:00:15.632Z,31.52
2023-02-28T08:02:57.198Z,22.95
2023-02-28T08:05:39.270Z,23.10
2023-02-28T08:08:12.248Z,18.65
2023-02-28T08:10:52.126Z,16.92
2023-02-28T08:13:27.793Z,17.45
2023-02-28T08:15:58.061Z,16.63
2023-02-28T08:18:27.801Z,17.63
2023-02-28T08:21:02.854Z,16.63
2023-02-28T08:23:34.827Z,18.38
2023-02-28T08:26:07.663Z,18.67
2023-02-28T08:28:40.765Z,18.00
2023-02-28T08:31:18.612Z,18.60
2023-02-28T08:33:52.185Z,17.20
2023-02-28T08:36:30.938Z,16.75
2023-02-28T08:39:02.674Z,17.27
2023-02-28T08:41:31.086Z,17.15
2023-02-28T08:44:02.874Z,18.23
2023-02-28T08:46:33.245Z,18.77
2023-02-28T08:49:03.503Z,17.45
2023-02-28T08:51:33.904Z,17.73
2023-02-28T08:54:14.034Z,18.40
2023-02-28T08:56:47.226Z,16.83
2023-02-28T08:59:26.886Z,20.73
2023-02-28T09:01:56.638Z,19.50
2023-02-28T09:04:31.006Z,20.27
2023-02-28T09:07:01.414Z,18.63
2023-02-28T09:09:31.568Z,18.05
2023-02-28T09:12:04.460Z,18.83
2023-02-28T09:14:35.485Z,19.40
2023-02-28T09:17:09.770Z,19.33
2023-02-28T09:19:44.498Z,19.65
2023-02-28T09:22:12.446Z,19.02
2023-02-28T09:24:52.924Z,18.60
2023-02-28T09:27:23.221Z,20.17
2023-02-28T09:29:52.455Z,35.55
2023-02-28T09:32:21.140Z,25.77
2023-02-28T09:34:49.560Z,23.70
2023-02-28T09:37:25.247Z,23.35
2023-02-28T09:40:00.221Z,18.60
2023-02-28T09:42:34.897Z,18.92
2023-02-28T09:45:12.976Z,20.50
2023-02-28T09:47:51.274Z,22.63
2023-02-28T09:50:48.219Z,20.48
2023-02-28T09:53:40.792Z,20.27
2023-02-28T09:56:51.339Z,21.50
2023-02-28T10:00:01.150Z,21.13
2023-02-28T10:06:09.928Z,19.85
2023-02-28T10:09:07.701Z,20.73
2023-02-28T10:11:38.462Z,19.13
2023-02-28T10:14:23.582Z,19.58
2023-02-28T10:16:59.243Z,20.27
2023-02-28T10:19:40.697Z,20.67
2023-02-28T10:22:20.493Z,19.73
2023-02-28T10:24:57.171Z,23.27
2023-02-28T10:27:37.323Z,23.02
2023-02-28T10:30:06.093Z,23.63
2023-02-28T10:32:45.484Z,22.80
2023-02-28T10:35:26.033Z,24.10
2023-02-28T10:37:59.252Z,22.80
2023-02-28T10:40:40.486Z,26.15
2023-02-28T10:43:32.135Z,25.27
2023-02-28T10:46:29.548Z,25.73
2023-02-28T10:49:11.410Z,24.48
2023-02-28T10:51:43.140Z,24.85
2023-02-28T10:54:37.485Z,24.27
2023-02-28T10:57:23.388Z,22.98
2023-02-28T10:59:53.980Z,23.27
2023-02-28T11:02:42.435Z,22.75
2023-02-28T11:05:34.747Z,23.30
2023-02-28T11:08:24.343Z,21.88
2023-02-28T11:11:02.099Z,22.30
2023-02-28T11:13:41.356Z,23.27
2023-02-28T11:16:14.366Z,22.45
2023-02-28T11:18:57.218Z,20.80
2023-02-28T11:21:35.914Z,21.90
2023-02-28T11:24:39.158Z,26.08
2023-02-28T11:27:28.439Z,22.65
2023-02-28T11:30:01.351Z,22.45
2023-02-28T11:32:33.528Z,22.48
2023-02-28T11:35:24.534Z,23.40
2023-02-28T11:37:55.948Z,25.95
2023-02-28T11:40:36.852Z,22.92
2023-02-28T11:43:42.974Z,24.02
2023-02-28T11:46:25.372Z,25.92
2023-02-28T11:49:29.732Z,23.77
2023-02-28T11:52:18.940Z,22.83
2023-02-28T11:55:11.154Z,22.30
2023-02-28T11:57:56.582Z,22.80
2023-02-28T12:01:06.376Z,20.02
2023-02-28T12:04:02.240Z,21.95
2023-02-28T12:06:48.398Z,22.80
2023-02-28T12:09:48.933Z,22.38
2023-02-28T12:12:57.711Z,21.52
2023-02-28T12:16:01.561Z,21.90
2023-02-28T12:19:06.972Z,21.02
2023-02-28T12:22:04.571Z,21.83
2023-02-28T12:27:25.244Z,21.10
2023-02-28T12:30:10.095Z,22.13
2023-02-28T12:32:59.490Z,21.77
2023-02-28T12:35:47.546Z,20.77
2023-02-28T12:38:50.883Z,22.90
2023-02-28T12:41:32.278Z,22.33
2023-02-28T12:44:13.751Z,21.25
2023-02-28T12:46:51.786Z,22.33
2023-02-28T12:49:42.715Z,20.65
2023-02-28T12:52:25.701Z,21.75
2023-02-28T12:55:16.774Z,17.30
2023-02-28T12:58:26.505Z,23.77
2023-02-28T13:01:34.311Z,22.35
2023-02-28T13:04:49.484Z,23.83
2023-02-28T13:07:57.590Z,21.13
2023-02-28T13:11:03.737Z,22.02
2023-02-28T13:13:34.363Z,21.65
2023-02-28T13:16:18.749Z,21.65
2023-02-28T13:18:48.185Z,23.17
2023-02-28T13:21:34.706Z,22.05
2023-02-28T13:24:09.893Z,21.95
2023-02-28T13:26:44.777Z,22.27
2023-02-28T13:29:24.168Z,21.83
2023-02-28T13:32:19.210Z,21.13
2023-02-28T13:35:07.081Z,20.15
2023-02-28T13:37:37.626Z,17.95
2023-02-28T13:40:28.011Z,18.83
2023-02-28T13:42:57.263Z,17.55
2023-02-28T13:45:42.096Z,17.05
2023-02-28T13:48:21.594Z,15.48
2023-02-28T13:50:52.989Z,14.27
2023-02-28T13:53:47.800Z,13.25
2023-02-28T13:56:36.824Z,13.05
2023-02-28T13:59:42.109Z,12.70
2023-02-28T14:02:48.530Z,13.27
2023-02-28T14:05:38.450Z,11.55
2023-02-28T14:08:31.712Z,13.45
2023-02-28T14:11:35.213Z,13.68
2023-02-28T14:14:07.065Z,12.60
2023-02-28T14:19:27.604Z,11.50
2023-02-28T14:22:33.492Z,12.43
2023-02-28T14:25:58.723Z,10.55
2023-02-28T14:29:06.617Z,11.52
2023-02-28T14:32:11.884Z,11.32
2023-02-28T14:35:29.007Z,10.90
2023-02-28T14:37:59.873Z,11.50
2023-02-28T14:40:37.956Z,12.35
2023-02-28T14:43:33.948Z,13.70
2023-02-28T14:46:08.012Z,14.20
2023-02-28T14:48:39.237Z,13.45
2023-02-28T14:51:08.345Z,14.63
2023-02-28T14:53:39.773Z,15.77
2023-02-28T14:56:18.951Z,15.23
2023-02-28T14:58:55.077Z,15.98
2023-02-28T15:01:30.939Z,17.52
2023-02-28T15:04:17.653Z,16.63
2023-02-28T15:06:47.515Z,16.42
2023-02-28T15:09:21.015Z,14.68
2023-02-28T15:11:53.185Z,16.73
2023-02-28T15:14:25.361Z,21.27
2023-02-28T15:17:06.471Z,17.73
2023-02-28T15:19:44.994Z,16.15
2023-02-28T15:22:20.854Z,16.67
2023-02-28T15:24:54.205Z,17.15
2023-02-28T15:27:31.582Z,17.27
2023-02-28T15:30:18.951Z,17.40
2023-02-28T15:33:19.779Z,17.90
2023-02-28T15:35:51.810Z,17.65
2023-02-28T15:38:29.411Z,17.25
2023-02-28T15:41:14.000Z,16.15
2023-02-28T15:43:45.044Z,14.98
2023-02-28T15:46:20.706Z,14.73
2023-02-28T15:49:03.092Z,14.23
2023-02-28T15:51:37.575Z,16.77
2023-02-28T15:54:09.507Z,17.75
2023-02-28T15:56:47.445Z,20.05
2023-02-28T15:59:23.113Z,18.80
2023-02-28T16:02:12.921Z,21.33
2023-02-28T16:05:08.906Z,20.90
2023-02-28T16:07:47.129Z,20.00
2023-02-28T16:10:19.147Z,18.50
2023-02-28T16:12:47.753Z,19.25
2023-02-28T16:15:28.468Z,21.70
2023-02-28T16:17:58.497Z,18.35
2023-02-28T16:20:31.122Z,18.70
2023-02-28T16:23:04.264Z,19.40
2023-02-28T16:25:44.495Z,20.58
2023-02-28T16:28:22.070Z,17.70
2023-02-28T16:31:02.873Z,18.45
2023-02-28T16:33:36.483Z,19.35
2023-02-28T16:36:26.202Z,19.13
2023-02-28T16:39:07.327Z,21.98
2023-02-28T16:41:45.842Z,25.38
2023-02-28T16:44:33.896Z,19.88
2023-02-28T16:47:03.832Z,17.63
2023-02-28T16:49:34.187Z,17.13
2023-02-28T16:52:06.048Z,17.08
2023-02-28T16:54:36.295Z,31.33
2023-02-28T16:57:18.190Z,35.95
2023-02-28T16:59:55.005Z,22.00
2023-02-28T17:02:23.890Z,19.85
2023-02-28T17:04:54.965Z,18.65
2023-02-28T17:10:31.000Z,14.07
2023-02-28T17:13:14.429Z,18.85
2023-02-28T17:15:48.907Z,18.37
2023-02-28T17:21:18.218Z,17.75
2023-02-28T17:23:49.284Z,18.42
2023-02-28T17:26:20.994Z,18.63
2023-02-28T17:28:54.094Z,19.27
2023-02-28T17:31:31.901Z,24.80
2023-02-28T17:34:04.451Z,28.48
2023-02-28T17:36:37.782Z,24.83
2023-02-28T17:39:16.138Z,25.17
2023-02-28T17:41:48.308Z,24.23
2023-02-28T17:47:01.955Z,27.30
2023-02-28T17:49:35.569Z,25.80
2023-02-28T17:52:09.296Z,26.95
2023-02-28T17:54:38.857Z,25.15
2023-02-28T17:57:17.312Z,26.63
2023-02-28T17:59:46.116Z,24.75
2023-02-28T18:02:16.325Z,24.23
2023-02-28T18:04:46.554Z,26.17
2023-02-28T18:07:15.354Z,24.98
2023-02-28T18:09:47.185Z,26.30
2023-02-28T18:12:19.564Z,31.43
2023-02-28T18:14:48.862Z,29.10
2023-02-28T18:17:18.247Z,30.52
2023-02-28T18:19:50.683Z,30.48
2023-02-28T18:22:23.584Z,29.25
2023-02-28T18:24:53.135Z,30.65
2023-02-28T18:27:24.014Z,29.48
2023-02-28T18:29:52.825Z,31.73
2023-02-28T18:32:23.098Z,31.20
2023-02-28T18:34:57.792Z,36.75
2023-02-28T18:37:32.170Z,33.03
2023-02-28T18:40:10.391Z,31.92
2023-02-28T18:42:53.613Z,32.85
2023-02-28T18:45:23.553Z,36.17
2023-02-28T18:48:02.434Z,32.75
2023-02-28T18:50:33.305Z,30.98
2023-02-28T18:53:03.571Z,32.50
2023-02-28T18:55:37.167Z,32.65
2023-02-28T18:58:10.900Z,32.17
2023-02-28T19:00:43.461Z,38.75
2023-02-28T19:03:12.163Z,36.55
2023-02-28T19:05:45.450Z,36.03
2023-02-28T19:08:17.134Z,39.13
2023-02-28T19:10:49.630Z,38.47
2023-02-28T19:13:22.159Z,38.20
2023-02-28T19:16:07.968Z,25.67
2023-02-28T19:18:40.688Z,34.85
2023-02-28T19:21:16.565Z,35.10
2023-02-28T19:23:50.442Z,36.65
2023-02-28T19:26:23.512Z,39.72
2023-02-28T19:28:58.930Z,40.17
2023-02-28T19:31:28.681Z,38.22
2023-02-28T19:34:02.070Z,36.10
2023-02-28T19:36:35.553Z,36.78
2023-02-28T19:39:15.239Z,37.15
2023-02-28T19:41:44.231Z,36.00
2023-02-28T19:44:15.065Z,33.65
2023-02-28T19:46:45.830Z,32.90
2023-02-28T19:49:21.145Z,35.75
2023-02-28T19:51:51.465Z,35.85
2023-02-28T19:54:22.953Z,35.70
2023-02-28T19:57:00.224Z,38.47
2023-02-28T19:59:39.523Z,36.00
2023-02-28T20:02:19.552Z,35.22
2023-02-28T20:04:52.805Z,37.00
2023-02-28T20:07:22.472Z,36.10
2023-02-28T20:09:51.640Z,36.35
2023-02-28T20:12:24.356Z,35.25
2023-02-28T20:15:00.868Z,24.23
2023-02-28T20:17:33.533Z,34.00
2023-02-28T20:20:05.081Z,32.22
2023-02-28T20:22:42.625Z,28.65
2023-02-28T20:25:11.918Z,28.60
2023-02-28T20:27:43.178Z,28.98
2023-02-28T20:30:14.187Z,28.48
2023-02-28T20:32:59.324Z,28.95
2023-02-28T20:35:30.722Z,29.67
2023-02-28T20:38:01.567Z,27.85
2023-02-28T20:40:34.974Z,27.30
2023-02-28T20:43:04.909Z,27.40
2023-02-28T20:45:40.885Z,28.08
2023-02-28T20:48:11.605Z,27.15
2023-02-28T20:50:41.874Z,26.00
2023-02-28T20:53:13.716Z,28.05
2023-02-28T20:56:17.598Z,26.85
2023-02-28T20:58:56.557Z,25.80
2023-02-28T21:04:19.195Z,28.13
2023-02-28T21:06:52.410Z,27.20
2023-02-28T21:09:21.093Z,25.98
2023-02-28T21:11:55.359Z,26.42
2023-02-28T21:17:14.554Z,26.03
2023-02-28T21:19:44.505Z,27.23
2023-02-28T21:22:19.847Z,27.15
2023-02-28T21:24:49.650Z,25.05
2023-02-28T21:27:19.095Z,25.55
2023-02-28T21:29:58.444Z,27.10
2023-02-28T21:32:40.194Z,25.20
2023-02-28T21:35:12.722Z,25.80
2023-02-28T21:37:45.467Z,25.63
2023-02-28T21:40:13.792Z,26.33
2023-02-28T21:42:43.235Z,26.40
2023-02-28T21:45:16.659Z,27.60
2023-02-28T21:47:51.399Z,27.25
2023-02-28T21:50:26.439Z,27.53
2023-02-28T21:53:00.520Z,25.10
2023-02-28T21:55:34.077Z,26.50
2023-02-28T22:00:57.006Z,27.92
2023-02-28T22:03:27.448Z,27.85
2023-02-28T22:05:57.479Z,28.02
2023-02-28T22:08:33.314Z,26.88
2023-02-28T22:11:12.998Z,29.55
2023-02-28T22:13:48.397Z,27.08
2023-02-28T22:16:20.946Z,29.10
2023-02-28T22:18:52.579Z,27.38
2023-02-28T22:21:23.483Z,28.13
2023-02-28T22:24:00.387Z,29.10
2023-02-28T22:26:33.655Z,28.23
2023-02-28T22:29:07.802Z,27.30
2023-02-28T22:31:37.596Z,28.42
2023-02-28T22:34:12.599Z,27.45
2023-02-28T22:36:43.740Z,28.35
2023-02-28T22:39:16.683Z,27.70
2023-02-28T22:41:46.308Z,27.27
2023-02-28T22:44:23.304Z,26.75
2023-02-28T22:46:55.652Z,26.00
2023-02-28T22:49:25.319Z,24.98
2023-02-28T22:51:57.658Z,26.20
2023-02-28T22:54:36.562Z,26.98
2023-02-28T22:57:08.560Z,27.13
2023-02-28T22:59:38.291Z,27.33
2023-02-28T23:02:10.205Z,28.55
2023-02-28T23:04:40.665Z,28.67
2023-02-28T23:07:10.630Z,27.00
2023-02-28T23:09:44.412Z,27.20
2023-02-28T23:12:15.453Z,24.65
2023-02-28T23:14:44.241Z,25.70
2023-02-28T23:17:15.288Z,25.65
2023-02-28T23:19:47.823Z,24.00
2023-02-28T23:22:17.355Z,25.52
2023-02-28T23:24:45.909Z,25.33
2023-02-28T23:27:14.990Z,27.33
2023-02-28T23:29:45.524Z,27.88
2023-02-28T23:32:13.417Z,28.40
2023-02-28T23:34:48.105Z,28.55
2023-02-28T23:37:18.548Z,27.33
2023-02-28T23:39:48.090Z,26.25
2023-02-28T23:42:22.198Z,25.58
2023-02-28T23:44:54.023Z,27.60
2023-02-28T23:47:25.552Z,26.25
2023-02-28T23:49:55.634Z,27.02
2023-02-28T23:52:25.555Z,26.95
2023-02-28T23:54:56.397Z,27.05
2023-02-28T23:57:23.781Z,27.30
2023-02-28T23:59:57.272Z,24.98
